sensor_id;sensor_type;location;lat;lon;timestamp;temperature;humidity
18101;DHT22;9177;49.156;8.142;2023-03-23T00:01:29;20.00;91.90
18101;DHT22;9177;49.156;8.142;2023-03-23T00:03:58;20.00;91.90
18101;DHT22;9177;49.156;8.142;2023-03-23T00:06:27;20.00;91.90
18101;DHT22;9177;49.156;8.142;2023-03-23T00:09:01;20.00;91.90
18101;DHT22;9177;49.156;8.142;2023-03-23T00:11:30;20.00;92.30
18101;DHT22;9177;49.156;8.142;2023-03-23T00:13:59;20.00;91.90
18101;DHT22;9177;49.156;8.142;2023-03-23T00:16:29;20.00;91.90
18101;DHT22;9177;49.156;8.142;2023-03-23T00:19:01;20.00;91.90
18101;DHT22;9177;49.156;8.142;2023-03-23T00:21:31;20.00;92.00
18101;DHT22;9177;49.156;8.142;2023-03-23T00:24:04;20.00;92.00
18101;DHT22;9177;49.156;8.142;2023-03-23T00:26:32;19.90;91.90
18101;DHT22;9177;49.156;8.142;2023-03-23T00:29:01;19.90;92.00
18101;DHT22;9177;49.156;8.142;2023-03-23T00:31:28;19.90;92.00
18101;DHT22;9177;49.156;8.142;2023-03-23T00:33:57;19.90;92.00
18101;DHT22;9177;49.156;8.142;2023-03-23T00:36:26;19.90;92.00
18101;DHT22;9177;49.156;8.142;2023-03-23T00:38:54;19.90;92.00
18101;DHT22;9177;49.156;8.142;2023-03-23T00:41:26;19.90;92.00
18101;DHT22;9177;49.156;8.142;2023-03-23T00:43:54;19.90;92.00
18101;DHT22;9177;49.156;8.142;2023-03-23T00:46:21;19.90;92.00
18101;DHT22;9177;49.156;8.142;2023-03-23T00:48:48;19.90;92.00
18101;DHT22;9177;49.156;8.142;2023-03-23T00:51:16;19.90;92.00
18101;DHT22;9177;49.156;8.142;2023-03-23T00:53:43;19.90;92.10
18101;DHT22;9177;49.156;8.142;2023-03-23T00:56:10;19.90;92.10
18101;DHT22;9177;49.156;8.142;2023-03-23T00:58:39;19.90;92.10
18101;DHT22;9177;49.156;8.142;2023-03-23T01:01:06;19.90;92.10
18101;DHT22;9177;49.156;8.142;2023-03-23T01:03:33;19.90;92.10
18101;DHT22;9177;49.156;8.142;2023-03-23T01:06:05;19.90;92.10
18101;DHT22;9177;49.156;8.142;2023-03-23T01:08:34;19.90;92.10
18101;DHT22;9177;49.156;8.142;2023-03-23T01:11:04;19.90;92.10
18101;DHT22;9177;49.156;8.142;2023-03-23T01:13:31;19.90;92.10
18101;DHT22;9177;49.156;8.142;2023-03-23T01:15:59;19.90;92.10
18101;DHT22;9177;49.156;8.142;2023-03-23T01:18:25;19.90;92.10
18101;DHT22;9177;49.156;8.142;2023-03-23T01:20:52;19.90;92.10
18101;DHT22;9177;49.156;8.142;2023-03-23T01:23:22;19.90;92.10
18101;DHT22;9177;49.156;8.142;2023-03-23T01:25:49;19.90;92.10
18101;DHT22;9177;49.156;8.142;2023-03-23T01:28:18;19.90;92.10
18101;DHT22;9177;49.156;8.142;2023-03-23T01:30:45;19.90;92.10
18101;DHT22;9177;49.156;8.142;2023-03-23T01:33:13;19.90;92.10
18101;DHT22;9177;49.156;8.142;2023-03-23T01:35:40;19.90;92.10
18101;DHT22;9177;49.156;8.142;2023-03-23T01:38:07;19.90;92.10
18101;DHT22;9177;49.156;8.142;2023-03-23T01:40:34;19.90;92.10
18101;DHT22;9177;49.156;8.142;2023-03-23T01:43:01;19.80;92.10
18101;DHT22;9177;49.156;8.142;2023-03-23T01:45:31;19.90;92.10
18101;DHT22;9177;49.156;8.142;2023-03-23T01:48:04;19.80;92.10
18101;DHT22;9177;49.156;8.142;2023-03-23T01:50:36;19.80;92.10
18101;DHT22;9177;49.156;8.142;2023-03-23T01:53:07;19.80;92.10
18101;DHT22;9177;49.156;8.142;2023-03-23T01:55:36;19.80;92.10
18101;DHT22;9177;49.156;8.142;2023-03-23T01:58:04;19.80;92.10
18101;DHT22;9177;49.156;8.142;2023-03-23T02:00:32;19.80;92.10
18101;DHT22;9177;49.156;8.142;2023-03-23T02:03:00;19.80;92.10
18101;DHT22;9177;49.156;8.142;2023-03-23T02:05:30;19.80;92.10
18101;DHT22;9177;49.156;8.142;2023-03-23T02:08:03;19.90;92.10
18101;DHT22;9177;49.156;8.142;2023-03-23T02:10:31;19.80;92.10
18101;DHT22;9177;49.156;8.142;2023-03-23T02:12:59;19.80;92.10
18101;DHT22;9177;49.156;8.142;2023-03-23T02:15:32;19.90;92.10
18101;DHT22;9177;49.156;8.142;2023-03-23T02:18:06;19.80;92.10
18101;DHT22;9177;49.156;8.142;2023-03-23T02:21:00;19.80;92.10
18101;DHT22;9177;49.156;8.142;2023-03-23T02:23:46;19.80;92.10
18101;DHT22;9177;49.156;8.142;2023-03-23T02:26:33;19.80;92.10
18101;DHT22;9177;49.156;8.142;2023-03-23T02:29:19;19.80;92.10
18101;DHT22;9177;49.156;8.142;2023-03-23T02:31:59;19.80;92.10
18101;DHT22;9177;49.156;8.142;2023-03-23T02:34:36;19.80;92.10
18101;DHT22;9177;49.156;8.142;2023-03-23T02:37:09;19.80;92.10
18101;DHT22;9177;49.156;8.142;2023-03-23T02:39:43;19.80;92.10
18101;DHT22;9177;49.156;8.142;2023-03-23T02:42:14;19.80;92.10
18101;DHT22;9177;49.156;8.142;2023-03-23T02:44:44;19.80;92.10
18101;DHT22;9177;49.156;8.142;2023-03-23T02:47:15;19.80;92.10
18101;DHT22;9177;49.156;8.142;2023-03-23T02:49:45;19.80;92.10
18101;DHT22;9177;49.156;8.142;2023-03-23T02:52:17;19.80;92.10
18101;DHT22;9177;49.156;8.142;2023-03-23T02:54:47;19.80;92.10
18101;DHT22;9177;49.156;8.142;2023-03-23T02:57:15;19.80;92.10
18101;DHT22;9177;49.156;8.142;2023-03-23T02:59:42;19.80;92.10
18101;DHT22;9177;49.156;8.142;2023-03-23T03:02:11;19.80;92.10
18101;DHT22;9177;49.156;8.142;2023-03-23T03:04:40;19.70;92.10
18101;DHT22;9177;49.156;8.142;2023-03-23T03:07:23;19.80;92.10
18101;DHT22;9177;49.156;8.142;2023-03-23T03:09:56;19.80;92.50
18101;DHT22;9177;49.156;8.142;2023-03-23T03:12:38;19.70;92.10
18101;DHT22;9177;49.156;8.142;2023-03-23T03:15:17;19.70;92.10
18101;DHT22;9177;49.156;8.142;2023-03-23T03:17:53;19.70;92.10
18101;DHT22;9177;49.156;8.142;2023-03-23T03:20:21;19.70;92.10
18101;DHT22;9177;49.156;8.142;2023-03-23T03:22:53;19.70;92.10
18101;DHT22;9177;49.156;8.142;2023-03-23T03:25:20;19.70;92.10
18101;DHT22;9177;49.156;8.142;2023-03-23T03:27:48;19.70;92.10
18101;DHT22;9177;49.156;8.142;2023-03-23T03:30:21;19.70;92.10
18101;DHT22;9177;49.156;8.142;2023-03-23T03:32:52;19.70;92.10
18101;DHT22;9177;49.156;8.142;2023-03-23T03:35:21;19.70;92.10
18101;DHT22;9177;49.156;8.142;2023-03-23T03:37:48;19.70;92.10
18101;DHT22;9177;49.156;8.142;2023-03-23T03:40:19;19.70;92.20
18101;DHT22;9177;49.156;8.142;2023-03-23T03:42:46;19.70;92.20
18101;DHT22;9177;49.156;8.142;2023-03-23T03:45:15;19.70;92.10
18101;DHT22;9177;49.156;8.142;2023-03-23T03:47:42;19.80;92.20
18101;DHT22;9177;49.156;8.142;2023-03-23T03:50:10;19.70;92.20
18101;DHT22;9177;49.156;8.142;2023-03-23T03:52:38;19.70;92.20
18101;DHT22;9177;49.156;8.142;2023-03-23T03:55:06;19.70;92.20
18101;DHT22;9177;49.156;8.142;2023-03-23T03:57:34;19.80;92.20
18101;DHT22;9177;49.156;8.142;2023-03-23T04:00:02;19.70;92.20
18101;DHT22;9177;49.156;8.142;2023-03-23T04:02:38;19.70;92.10
18101;DHT22;9177;49.156;8.142;2023-03-23T04:05:06;19.70;92.10
18101;DHT22;9177;49.156;8.142;2023-03-23T04:07:34;19.70;92.10
18101;DHT22;9177;49.156;8.142;2023-03-23T04:10:04;19.70;92.10
18101;DHT22;9177;49.156;8.142;2023-03-23T04:12:31;19.70;92.20
18101;DHT22;9177;49.156;8.142;2023-03-23T04:14:59;19.70;92.10
18101;DHT22;9177;49.156;8.142;2023-03-23T04:17:26;19.70;92.20
18101;DHT22;9177;49.156;8.142;2023-03-23T04:19:53;19.70;92.20
18101;DHT22;9177;49.156;8.142;2023-03-23T04:22:22;19.70;92.20
18101;DHT22;9177;49.156;8.142;2023-03-23T04:24:56;19.70;92.20
18101;DHT22;9177;49.156;8.142;2023-03-23T04:27:24;19.70;92.20
18101;DHT22;9177;49.156;8.142;2023-03-23T04:29:53;19.70;92.20
18101;DHT22;9177;49.156;8.142;2023-03-23T04:32:22;19.70;92.20
18101;DHT22;9177;49.156;8.142;2023-03-23T04:34:50;19.80;92.20
18101;DHT22;9177;49.156;8.142;2023-03-23T04:37:17;20.00;92.10
18101;DHT22;9177;49.156;8.142;2023-03-23T04:39:44;20.20;91.90
18101;DHT22;9177;49.156;8.142;2023-03-23T04:42:11;20.40;91.70
18101;DHT22;9177;49.156;8.142;2023-03-23T04:44:40;20.50;91.50
18101;DHT22;9177;49.156;8.142;2023-03-23T04:47:09;20.80;91.30
18101;DHT22;9177;49.156;8.142;2023-03-23T04:49:37;20.90;91.10
18101;DHT22;9177;49.156;8.142;2023-03-23T04:52:04;21.20;90.90
18101;DHT22;9177;49.156;8.142;2023-03-23T04:54:31;21.30;90.70
18101;DHT22;9177;49.156;8.142;2023-03-23T04:56:58;21.40;90.60
18101;DHT22;9177;49.156;8.142;2023-03-23T04:59:25;21.60;90.50
18101;DHT22;9177;49.156;8.142;2023-03-23T05:01:53;21.60;90.40
18101;DHT22;9177;49.156;8.142;2023-03-23T05:04:21;21.60;90.40
18101;DHT22;9177;49.156;8.142;2023-03-23T05:06:49;21.60;90.40
18101;DHT22;9177;49.156;8.142;2023-03-23T05:09:16;21.60;90.50
18101;DHT22;9177;49.156;8.142;2023-03-23T05:11:43;21.50;90.50
18101;DHT22;9177;49.156;8.142;2023-03-23T05:14:10;21.50;90.60
18101;DHT22;9177;49.156;8.142;2023-03-23T05:16:36;21.40;90.70
18101;DHT22;9177;49.156;8.142;2023-03-23T05:19:04;21.30;90.80
18101;DHT22;9177;49.156;8.142;2023-03-23T05:21:31;21.20;90.90
18101;DHT22;9177;49.156;8.142;2023-03-23T05:23:59;21.20;91.00
18101;DHT22;9177;49.156;8.142;2023-03-23T05:26:27;21.10;91.00
18101;DHT22;9177;49.156;8.142;2023-03-23T05:28:55;21.00;91.10
18101;DHT22;9177;49.156;8.142;2023-03-23T05:31:23;21.00;91.20
18101;DHT22;9177;49.156;8.142;2023-03-23T05:33:50;20.90;91.30
18101;DHT22;9177;49.156;8.142;2023-03-23T05:36:17;20.80;91.30
18101;DHT22;9177;49.156;8.142;2023-03-23T05:38:44;20.80;91.40
18101;DHT22;9177;49.156;8.142;2023-03-23T05:41:16;20.80;91.50
18101;DHT22;9177;49.156;8.142;2023-03-23T05:43:43;20.70;91.50
18101;DHT22;9177;49.156;8.142;2023-03-23T05:46:09;20.70;91.50
18101;DHT22;9177;49.156;8.142;2023-03-23T05:48:36;20.70;91.60
18101;DHT22;9177;49.156;8.142;2023-03-23T05:51:04;20.60;91.60
18101;DHT22;9177;49.156;8.142;2023-03-23T05:53:31;20.60;91.70
18101;DHT22;9177;49.156;8.142;2023-03-23T05:56:00;20.60;91.70
18101;DHT22;9177;49.156;8.142;2023-03-23T05:58:29;20.50;91.70
18101;DHT22;9177;49.156;8.142;2023-03-23T06:00:56;20.50;91.80
18101;DHT22;9177;49.156;8.142;2023-03-23T06:03:23;20.50;91.80
18101;DHT22;9177;49.156;8.142;2023-03-23T06:05:50;20.40;91.80
18101;DHT22;9177;49.156;8.142;2023-03-23T06:08:17;20.40;91.90
18101;DHT22;9177;49.156;8.142;2023-03-23T06:10:44;20.40;91.90
18101;DHT22;9177;49.156;8.142;2023-03-23T06:13:11;20.40;91.90
18101;DHT22;9177;49.156;8.142;2023-03-23T06:15:39;20.40;92.00
18101;DHT22;9177;49.156;8.142;2023-03-23T06:18:07;20.30;92.00
18101;DHT22;9177;49.156;8.142;2023-03-23T06:20:34;20.40;92.00
18101;DHT22;9177;49.156;8.142;2023-03-23T06:23:01;20.30;92.00
18101;DHT22;9177;49.156;8.142;2023-03-23T06:25:29;20.30;92.00
18101;DHT22;9177;49.156;8.142;2023-03-23T06:27:56;20.30;92.10
18101;DHT22;9177;49.156;8.142;2023-03-23T06:30:24;20.30;92.00
18101;DHT22;9177;49.156;8.142;2023-03-23T06:32:53;20.30;92.00
18101;DHT22;9177;49.156;8.142;2023-03-23T06:35:21;20.30;91.90
18101;DHT22;9177;49.156;8.142;2023-03-23T06:37:48;20.30;91.90
18101;DHT22;9177;49.156;8.142;2023-03-23T06:40:16;20.30;91.90
18101;DHT22;9177;49.156;8.142;2023-03-23T06:42:44;20.30;91.90
18101;DHT22;9177;49.156;8.142;2023-03-23T06:45:11;20.30;91.90
18101;DHT22;9177;49.156;8.142;2023-03-23T06:47:39;20.30;91.90
18101;DHT22;9177;49.156;8.142;2023-03-23T06:50:08;20.30;91.90
18101;DHT22;9177;49.156;8.142;2023-03-23T06:52:35;20.30;91.90
18101;DHT22;9177;49.156;8.142;2023-03-23T06:55:02;20.30;91.90
18101;DHT22;9177;49.156;8.142;2023-03-23T06:57:29;20.30;92.00
18101;DHT22;9177;49.156;8.142;2023-03-23T06:59:56;20.30;92.30
18101;DHT22;9177;49.156;8.142;2023-03-23T07:02:23;20.30;92.00
18101;DHT22;9177;49.156;8.142;2023-03-23T07:04:51;20.30;92.00
18101;DHT22;9177;49.156;8.142;2023-03-23T07:07:20;20.30;92.00
18101;DHT22;9177;49.156;8.142;2023-03-23T07:09:47;20.30;92.00
18101;DHT22;9177;49.156;8.142;2023-03-23T07:12:14;20.30;92.00
18101;DHT22;9177;49.156;8.142;2023-03-23T07:14:41;20.30;92.00
18101;DHT22;9177;49.156;8.142;2023-03-23T07:17:08;20.30;92.00
18101;DHT22;9177;49.156;8.142;2023-03-23T07:19:35;20.30;92.10
18101;DHT22;9177;49.156;8.142;2023-03-23T07:22:04;20.30;92.10
18101;DHT22;9177;49.156;8.142;2023-03-23T07:24:33;20.20;92.00
18101;DHT22;9177;49.156;8.142;2023-03-23T07:27:01;20.30;92.10
18101;DHT22;9177;49.156;8.142;2023-03-23T07:29:28;20.30;92.10
18101;DHT22;9177;49.156;8.142;2023-03-23T07:31:55;20.30;92.10
18101;DHT22;9177;49.156;8.142;2023-03-23T07:34:22;20.30;92.10
18101;DHT22;9177;49.156;8.142;2023-03-23T07:36:49;20.30;92.10
18101;DHT22;9177;49.156;8.142;2023-03-23T07:39:16;20.30;92.10
18101;DHT22;9177;49.156;8.142;2023-03-23T07:41:44;20.30;92.10
18101;DHT22;9177;49.156;8.142;2023-03-23T07:44:11;20.30;92.10
18101;DHT22;9177;49.156;8.142;2023-03-23T07:46:38;20.30;92.10
18101;DHT22;9177;49.156;8.142;2023-03-23T07:49:05;20.30;92.10
18101;DHT22;9177;49.156;8.142;2023-03-23T07:51:33;20.30;92.10
18101;DHT22;9177;49.156;8.142;2023-03-23T07:54:01;20.30;92.20
18101;DHT22;9177;49.156;8.142;2023-03-23T07:56:28;20.30;92.10
18101;DHT22;9177;49.156;8.142;2023-03-23T07:58:56;20.30;92.10
18101;DHT22;9177;49.156;8.142;2023-03-23T08:01:23;20.30;92.20
18101;DHT22;9177;49.156;8.142;2023-03-23T08:03:51;20.30;92.20
18101;DHT22;9177;49.156;8.142;2023-03-23T08:06:20;20.30;92.20
18101;DHT22;9177;49.156;8.142;2023-03-23T08:08:49;20.30;92.20
18101;DHT22;9177;49.156;8.142;2023-03-23T08:11:16;20.30;92.20
18101;DHT22;9177;49.156;8.142;2023-03-23T08:13:44;20.30;92.20
18101;DHT22;9177;49.156;8.142;2023-03-23T08:16:13;20.30;92.20
18101;DHT22;9177;49.156;8.142;2023-03-23T08:18:40;20.30;92.20
18101;DHT22;9177;49.156;8.142;2023-03-23T08:21:07;20.30;92.30
18101;DHT22;9177;49.156;8.142;2023-03-23T08:23:35;20.30;92.30
18101;DHT22;9177;49.156;8.142;2023-03-23T08:26:07;20.30;92.30
18101;DHT22;9177;49.156;8.142;2023-03-23T08:28:34;20.30;92.30
18101;DHT22;9177;49.156;8.142;2023-03-23T08:31:06;20.30;92.30
18101;DHT22;9177;49.156;8.142;2023-03-23T08:33:34;20.30;92.30
18101;DHT22;9177;49.156;8.142;2023-03-23T08:36:02;20.30;92.30
18101;DHT22;9177;49.156;8.142;2023-03-23T08:38:30;20.30;92.30
18101;DHT22;9177;49.156;8.142;2023-03-23T08:40:58;20.30;92.30
18101;DHT22;9177;49.156;8.142;2023-03-23T08:43:25;20.30;92.30
18101;DHT22;9177;49.156;8.142;2023-03-23T08:45:53;20.30;92.30
18101;DHT22;9177;49.156;8.142;2023-03-23T08:48:20;20.30;92.30
18101;DHT22;9177;49.156;8.142;2023-03-23T08:50:49;20.30;92.30
18101;DHT22;9177;49.156;8.142;2023-03-23T08:53:18;20.30;92.40
18101;DHT22;9177;49.156;8.142;2023-03-23T08:55:46;20.30;92.40
18101;DHT22;9177;49.156;8.142;2023-03-23T08:58:13;20.30;92.40
18101;DHT22;9177;49.156;8.142;2023-03-23T09:00:40;20.30;92.30
18101;DHT22;9177;49.156;8.142;2023-03-23T09:03:07;20.30;92.30
18101;DHT22;9177;49.156;8.142;2023-03-23T09:05:34;20.30;92.30
18101;DHT22;9177;49.156;8.142;2023-03-23T09:08:03;20.30;92.30
18101;DHT22;9177;49.156;8.142;2023-03-23T09:10:30;20.30;92.40
18101;DHT22;9177;49.156;8.142;2023-03-23T09:12:57;20.30;92.40
18101;DHT22;9177;49.156;8.142;2023-03-23T09:15:24;20.30;92.40
18101;DHT22;9177;49.156;8.142;2023-03-23T09:17:52;20.30;92.40
18101;DHT22;9177;49.156;8.142;2023-03-23T09:20:21;20.30;92.40
18101;DHT22;9177;49.156;8.142;2023-03-23T09:22:50;20.30;92.40
18101;DHT22;9177;49.156;8.142;2023-03-23T09:25:20;20.30;92.40
18101;DHT22;9177;49.156;8.142;2023-03-23T09:27:49;20.30;92.40
18101;DHT22;9177;49.156;8.142;2023-03-23T09:30:19;20.30;92.50
18101;DHT22;9177;49.156;8.142;2023-03-23T09:32:47;20.30;92.50
18101;DHT22;9177;49.156;8.142;2023-03-23T09:35:15;20.30;92.50
18101;DHT22;9177;49.156;8.142;2023-03-23T09:37:43;20.30;92.50
18101;DHT22;9177;49.156;8.142;2023-03-23T09:40:13;20.30;92.50
18101;DHT22;9177;49.156;8.142;2023-03-23T09:43:02;20.30;92.50
18101;DHT22;9177;49.156;8.142;2023-03-23T09:45:39;20.30;92.50
18101;DHT22;9177;49.156;8.142;2023-03-23T09:48:24;20.30;92.50
18101;DHT22;9177;49.156;8.142;2023-03-23T09:50:57;20.30;92.50
18101;DHT22;9177;49.156;8.142;2023-03-23T09:53:29;20.30;92.50
18101;DHT22;9177;49.156;8.142;2023-03-23T09:56:00;20.40;92.60
18101;DHT22;9177;49.156;8.142;2023-03-23T09:58:33;20.30;92.50
18101;DHT22;9177;49.156;8.142;2023-03-23T10:01:04;20.40;92.60
18101;DHT22;9177;49.156;8.142;2023-03-23T10:03:37;20.40;92.70
18101;DHT22;9177;49.156;8.142;2023-03-23T10:06:08;20.40;92.70
18101;DHT22;9177;49.156;8.142;2023-03-23T10:08:36;20.30;92.70
18101;DHT22;9177;49.156;8.142;2023-03-23T10:11:10;20.30;92.70
18101;DHT22;9177;49.156;8.142;2023-03-23T10:14:00;20.30;92.70
18101;DHT22;9177;49.156;8.142;2023-03-23T10:16:32;20.30;92.80
18101;DHT22;9177;49.156;8.142;2023-03-23T10:19:07;20.30;92.80
18101;DHT22;9177;49.156;8.142;2023-03-23T10:21:40;20.30;92.80
18101;DHT22;9177;49.156;8.142;2023-03-23T10:24:09;20.30;92.90
18101;DHT22;9177;49.156;8.142;2023-03-23T10:26:45;20.30;92.90
18101;DHT22;9177;49.156;8.142;2023-03-23T10:29:19;20.30;92.90
18101;DHT22;9177;49.156;8.142;2023-03-23T10:31:51;20.30;92.90
18101;DHT22;9177;49.156;8.142;2023-03-23T10:34:23;20.30;92.90
18101;DHT22;9177;49.156;8.142;2023-03-23T10:36:56;20.30;92.90
18101;DHT22;9177;49.156;8.142;2023-03-23T10:39:29;20.40;92.90
18101;DHT22;9177;49.156;8.142;2023-03-23T10:41:59;20.40;93.00
18101;DHT22;9177;49.156;8.142;2023-03-23T10:44:34;20.40;93.00
18101;DHT22;9177;49.156;8.142;2023-03-23T10:47:03;20.40;93.00
18101;DHT22;9177;49.156;8.142;2023-03-23T10:49:36;20.40;93.00
18101;DHT22;9177;49.156;8.142;2023-03-23T10:52:24;20.40;93.10
18101;DHT22;9177;49.156;8.142;2023-03-23T10:54:55;20.40;93.10
18101;DHT22;9177;49.156;8.142;2023-03-23T10:57:25;20.40;93.10
18101;DHT22;9177;49.156;8.142;2023-03-23T11:00:00;20.40;93.10
18101;DHT22;9177;49.156;8.142;2023-03-23T11:02:32;20.40;93.10
18101;DHT22;9177;49.156;8.142;2023-03-23T11:05:04;20.40;93.10
18101;DHT22;9177;49.156;8.142;2023-03-23T11:07:34;20.40;93.10
18101;DHT22;9177;49.156;8.142;2023-03-23T11:10:17;20.40;93.10
18101;DHT22;9177;49.156;8.142;2023-03-23T11:12:46;20.40;93.20
18101;DHT22;9177;49.156;8.142;2023-03-23T11:15:33;20.40;93.20
18101;DHT22;9177;49.156;8.142;2023-03-23T11:18:03;20.40;93.30
18101;DHT22;9177;49.156;8.142;2023-03-23T11:20:35;20.40;93.30
18101;DHT22;9177;49.156;8.142;2023-03-23T11:23:10;20.40;93.30
18101;DHT22;9177;49.156;8.142;2023-03-23T11:25:52;20.40;93.30
18101;DHT22;9177;49.156;8.142;2023-03-23T11:28:19;20.40;93.30
18101;DHT22;9177;49.156;8.142;2023-03-23T11:30:48;20.40;93.30
18101;DHT22;9177;49.156;8.142;2023-03-23T11:33:15;20.40;93.50
18101;DHT22;9177;49.156;8.142;2023-03-23T11:35:44;20.40;94.00
18101;DHT22;9177;49.156;8.142;2023-03-23T11:38:18;20.40;93.60
18101;DHT22;9177;49.156;8.142;2023-03-23T11:40:48;20.40;93.60
18101;DHT22;9177;49.156;8.142;2023-03-23T11:43:19;20.40;93.70
18101;DHT22;9177;49.156;8.142;2023-03-23T11:45:56;20.40;93.60
18101;DHT22;9177;49.156;8.142;2023-03-23T11:48:35;20.40;93.60
18101;DHT22;9177;49.156;8.142;2023-03-23T11:51:06;20.40;93.70
18101;DHT22;9177;49.156;8.142;2023-03-23T11:53:45;20.40;93.70
18101;DHT22;9177;49.156;8.142;2023-03-23T11:56:22;20.40;93.70
18101;DHT22;9177;49.156;8.142;2023-03-23T11:58:49;20.40;93.70
18101;DHT22;9177;49.156;8.142;2023-03-23T12:01:28;20.40;93.70
18101;DHT22;9177;49.156;8.142;2023-03-23T12:04:16;20.40;93.70
18101;DHT22;9177;49.156;8.142;2023-03-23T12:06:51;20.40;93.70
18101;DHT22;9177;49.156;8.142;2023-03-23T12:09:35;20.40;93.60
18101;DHT22;9177;49.156;8.142;2023-03-23T12:12:13;20.40;93.60
18101;DHT22;9177;49.156;8.142;2023-03-23T12:14:47;20.40;93.60
18101;DHT22;9177;49.156;8.142;2023-03-23T12:17:23;20.40;93.70
18101;DHT22;9177;49.156;8.142;2023-03-23T12:20:01;20.40;93.70
18101;DHT22;9177;49.156;8.142;2023-03-23T12:22:44;20.40;93.70
18101;DHT22;9177;49.156;8.142;2023-03-23T12:25:31;20.40;93.70
18101;DHT22;9177;49.156;8.142;2023-03-23T12:28:07;20.40;93.70
18101;DHT22;9177;49.156;8.142;2023-03-23T12:30:42;20.40;93.70
18101;DHT22;9177;49.156;8.142;2023-03-23T12:33:21;20.40;93.70
18101;DHT22;9177;49.156;8.142;2023-03-23T12:35:59;20.40;93.70
18101;DHT22;9177;49.156;8.142;2023-03-23T12:41:23;20.40;93.70
18101;DHT22;9177;49.156;8.142;2023-03-23T12:43:57;20.40;93.70
18101;DHT22;9177;49.156;8.142;2023-03-23T12:46:58;20.40;93.70
18101;DHT22;9177;49.156;8.142;2023-03-23T12:49:31;20.40;93.70
18101;DHT22;9177;49.156;8.142;2023-03-23T12:52:04;20.30;93.70
18101;DHT22;9177;49.156;8.142;2023-03-23T12:54:41;20.40;93.70
18101;DHT22;9177;49.156;8.142;2023-03-23T12:57:18;20.30;93.70
18101;DHT22;9177;49.156;8.142;2023-03-23T12:59:49;20.30;93.70
18101;DHT22;9177;49.156;8.142;2023-03-23T13:02:22;20.30;93.70
18101;DHT22;9177;49.156;8.142;2023-03-23T13:04:57;20.30;93.70
18101;DHT22;9177;49.156;8.142;2023-03-23T13:07:30;20.30;94.10
18101;DHT22;9177;49.156;8.142;2023-03-23T13:10:03;20.40;93.70
18101;DHT22;9177;49.156;8.142;2023-03-23T13:12:31;20.40;93.70
18101;DHT22;9177;49.156;8.142;2023-03-23T13:15:06;20.40;93.70
18101;DHT22;9177;49.156;8.142;2023-03-23T13:17:44;20.40;93.70
18101;DHT22;9177;49.156;8.142;2023-03-23T13:20:37;20.30;93.70
18101;DHT22;9177;49.156;8.142;2023-03-23T13:23:10;20.30;93.70
18101;DHT22;9177;49.156;8.142;2023-03-23T13:26:00;20.40;93.70
18101;DHT22;9177;49.156;8.142;2023-03-23T13:28:29;20.40;93.70
18101;DHT22;9177;49.156;8.142;2023-03-23T13:30:59;20.40;93.70
18101;DHT22;9177;49.156;8.142;2023-03-23T13:33:30;20.40;93.70
18101;DHT22;9177;49.156;8.142;2023-03-23T13:36:03;20.40;93.70
18101;DHT22;9177;49.156;8.142;2023-03-23T13:38:33;20.40;93.70
18101;DHT22;9177;49.156;8.142;2023-03-23T13:41:07;20.40;93.70
18101;DHT22;9177;49.156;8.142;2023-03-23T13:43:36;20.40;93.70
18101;DHT22;9177;49.156;8.142;2023-03-23T13:46:22;20.40;93.70
18101;DHT22;9177;49.156;8.142;2023-03-23T13:49:02;20.40;93.70
18101;DHT22;9177;49.156;8.142;2023-03-23T13:51:36;20.40;93.60
18101;DHT22;9177;49.156;8.142;2023-03-23T13:54:14;20.40;93.70
18101;DHT22;9177;49.156;8.142;2023-03-23T13:56:47;20.40;93.70
18101;DHT22;9177;49.156;8.142;2023-03-23T13:59:16;20.40;93.70
18101;DHT22;9177;49.156;8.142;2023-03-23T14:01:43;20.30;93.70
18101;DHT22;9177;49.156;8.142;2023-03-23T14:04:13;20.30;93.70
18101;DHT22;9177;49.156;8.142;2023-03-23T14:06:43;20.30;93.70
18101;DHT22;9177;49.156;8.142;2023-03-23T14:09:14;20.30;93.70
18101;DHT22;9177;49.156;8.142;2023-03-23T14:11:50;20.30;93.70
18101;DHT22;9177;49.156;8.142;2023-03-23T14:14:23;20.30;93.70
18101;DHT22;9177;49.156;8.142;2023-03-23T14:16:51;20.30;93.70
18101;DHT22;9177;49.156;8.142;2023-03-23T14:19:23;20.30;93.70
18101;DHT22;9177;49.156;8.142;2023-03-23T14:21:54;20.30;93.70
18101;DHT22;9177;49.156;8.142;2023-03-23T14:24:23;20.30;93.70
18101;DHT22;9177;49.156;8.142;2023-03-23T14:26:52;20.30;93.70
18101;DHT22;9177;49.156;8.142;2023-03-23T14:29:20;20.30;93.70
18101;DHT22;9177;49.156;8.142;2023-03-23T14:31:52;20.30;93.70
18101;DHT22;9177;49.156;8.142;2023-03-23T14:34:23;20.30;93.70
18101;DHT22;9177;49.156;8.142;2023-03-23T14:36:50;20.30;93.70
18101;DHT22;9177;49.156;8.142;2023-03-23T14:39:23;20.30;93.70
18101;DHT22;9177;49.156;8.142;2023-03-23T14:41:52;20.30;93.70
18101;DHT22;9177;49.156;8.142;2023-03-23T14:44:23;20.30;93.70
18101;DHT22;9177;49.156;8.142;2023-03-23T14:46:51;20.30;93.70
18101;DHT22;9177;49.156;8.142;2023-03-23T14:49:23;20.30;93.70
18101;DHT22;9177;49.156;8.142;2023-03-23T14:51:52;20.30;93.60
18101;DHT22;9177;49.156;8.142;2023-03-23T14:54:26;20.30;93.70
18101;DHT22;9177;49.156;8.142;2023-03-23T14:56:53;20.30;93.70
18101;DHT22;9177;49.156;8.142;2023-03-23T14:59:23;20.30;93.80
18101;DHT22;9177;49.156;8.142;2023-03-23T15:01:51;20.30;93.80
18101;DHT22;9177;49.156;8.142;2023-03-23T15:04:20;20.40;94.20
18101;DHT22;9177;49.156;8.142;2023-03-23T15:06:50;20.40;93.90
18101;DHT22;9177;49.156;8.142;2023-03-23T15:09:19;20.40;93.90
18101;DHT22;9177;49.156;8.142;2023-03-23T15:11:54;20.40;94.00
18101;DHT22;9177;49.156;8.142;2023-03-23T15:14:24;20.40;93.90
18101;DHT22;9177;49.156;8.142;2023-03-23T15:16:54;20.40;94.00
18101;DHT22;9177;49.156;8.142;2023-03-23T15:19:24;20.40;93.90
18101;DHT22;9177;49.156;8.142;2023-03-23T15:21:53;20.40;94.00
18101;DHT22;9177;49.156;8.142;2023-03-23T15:24:33;20.40;94.00
18101;DHT22;9177;49.156;8.142;2023-03-23T15:27:12;20.40;94.10
18101;DHT22;9177;49.156;8.142;2023-03-23T15:29:47;20.40;94.10
18101;DHT22;9177;49.156;8.142;2023-03-23T15:32:24;20.40;94.20
18101;DHT22;9177;49.156;8.142;2023-03-23T15:34:52;20.40;94.20
18101;DHT22;9177;49.156;8.142;2023-03-23T15:37:27;20.40;94.20
18101;DHT22;9177;49.156;8.142;2023-03-23T15:39:55;20.40;94.20
18101;DHT22;9177;49.156;8.142;2023-03-23T15:42:26;20.40;94.20
18101;DHT22;9177;49.156;8.142;2023-03-23T15:45:02;20.30;94.20
18101;DHT22;9177;49.156;8.142;2023-03-23T15:47:38;20.30;94.20
18101;DHT22;9177;49.156;8.142;2023-03-23T15:50:13;20.30;94.20
18101;DHT22;9177;49.156;8.142;2023-03-23T15:52:41;20.30;94.20
18101;DHT22;9177;49.156;8.142;2023-03-23T15:55:22;20.30;94.20
18101;DHT22;9177;49.156;8.142;2023-03-23T15:57:53;20.30;94.20
18101;DHT22;9177;49.156;8.142;2023-03-23T16:00:22;20.30;94.10
18101;DHT22;9177;49.156;8.142;2023-03-23T16:02:52;20.20;94.10
18101;DHT22;9177;49.156;8.142;2023-03-23T16:05:21;20.20;94.40
18101;DHT22;9177;49.156;8.142;2023-03-23T16:07:49;20.30;94.50
18101;DHT22;9177;49.156;8.142;2023-03-23T16:10:18;20.30;94.50